Main page
METAR-TAF:

METAR-TAF

Airports :

Pisa, Italy

Pisa International Airport

latitude: 43-41N, longitude: 010-23E, elevation: 2 m

Current weather observation

The report was made 48 minutes ago, at 02:15 UTC
Wind 5 kt from the East
Temperature 14°C
Humidity 88%
Pressure 1020 hPa
Visibility 10 km or more
no clouds below 1500 m and no cumulonimbus

METAR: LIRP 280215Z 09005KT CAVOK 14/12 Q1020 NOSIG

Time: 05:03 (03:03 UTC)

Forecast

The report was made 4 hours and 3 minutes ago, at 23:00 UTC
Forecast valid from 28 at 00 UTC to 28 at 24 UTC
Wind 6 kt from the East/Southeast
Visibility 10 km or more
no clouds below 1500 m and no cumulonimbus
Becoming
from 28 at 10 UTC to 28 at 12 UTC
Wind 15 kt from the West/Northwest
Becoming
from 28 at 18 UTC to 28 at 20 UTC
Wind 6 kt from the East

TAF: LIRP 272300Z 2800/2824 12006KT CAVOK BECMG 2810/2812 30015KT BECMG 2818/2820 10006KT

Weather observations and forecasts of more than 4000 airports (METAR and TAF reports).

The available stations are represented by yellow and red dots on the map.

Hover mouse over dot to see the name of the station.

Then click to see weather observations and forecasts.

To change the map : click on the green buttons with a black cross to zoom in, on the green button with a dash to zoom out, or on the green arrows for adjacent maps.


METAR-TAF: